Time;durP1;ratioP1;P1;durP2;ratioP2;P2;SDS_P1;SDS_P2;PMS_P1;PMS_P2;Temp;Humidity;BMP_temperature;BMP_pressure;BME280_temperature;BME280_humidity;BME280_pressure;Samples;Min_cycle;Max_cycle;Signal;HPM_P1;HPM_P2
2023/08/25 06:31:11;;;;;;;11.10;5.30;;;;;;;22.08;63.75;100176.03;112874;1249;23672;-56
2023/08/25 06:33:39;;;;;;;12.90;7.50;;;;;;;22.24;62.41;100181.29;112995;1249;23196;-49
2023/08/25 06:36:07;;;;;;;15.50;7.10;;;;;;;22.38;61.59;100178.27;112982;1249;23611;-49
2023/08/25 06:38:34;;;;;;;13.00;6.20;;;;;;;22.53;61.18;100179.29;111951;1249;25579;-57
2023/08/25 06:41:20;;;;;;;7.10;3.90;;;;;;;22.73;60.58;100178.05;110848;1249;22591;-48
2023/08/25 06:43:47;;;;;;;10.50;4.20;;;;;;;22.89;59.62;100181.34;111338;1249;23541;-57
2023/08/25 06:46:14;;;;;;;9.80;4.50;;;;;;;23.06;58.85;100174.21;111236;1248;22510;-49
2023/08/25 06:48:42;;;;;;;14.10;4.50;;;;;;;23.25;58.30;100171.60;110765;1249;22540;-53
2023/08/25 06:51:09;;;;;;;10.90;3.80;;;;;;;23.43;57.81;100167.80;110802;1249;22587;-57
2023/08/25 06:53:36;;;;;;;6.60;2.90;;;;;;;23.62;56.45;100168.52;110534;1249;22296;-47
2023/08/25 06:56:03;;;;;;;5.00;2.60;;;;;;;23.78;54.35;100161.73;110788;1249;22938;-48
2023/08/25 06:58:31;;;;;;;9.50;4.60;;;;;;;23.91;53.26;100160.42;110758;1249;22494;-56
2023/08/25 07:00:58;;;;;;;16.30;4.80;;;;;;;24.01;52.36;100156.16;110461;1249;25518;-48
2023/08/25 07:03:25;;;;;;;10.20;4.50;;;;;;;24.09;52.23;100155.84;111318;1249;22528;-57
2023/08/25 07:05:59;;;;;;;8.80;5.00;;;;;;;24.20;51.55;100154.48;112246;1249;22491;-55
2023/08/25 07:08:26;;;;;;;5.30;3.10;;;;;;;24.32;51.29;100153.80;113011;1249;23254;-57
2023/08/25 07:10:53;;;;;;;6.00;3.00;;;;;;;24.44;50.46;100156.33;112987;1249;22492;-48
2023/08/25 07:13:21;;;;;;;4.10;2.20;;;;;;;24.56;49.71;100148.31;112146;1249;25258;-50
2023/08/25 07:15:49;;;;;;;6.10;2.90;;;;;;;24.71;48.85;100145.10;110862;1249;22704;-49
2023/08/25 07:18:16;;;;;;;3.30;2.00;;;;;;;24.85;48.02;100144.37;112064;1249;22505;-48
2023/08/25 07:20:43;;;;;;;5.30;2.50;;;;;;;24.99;47.28;100141.57;111692;1249;24015;-48
2023/08/25 07:23:10;;;;;;;4.00;2.10;;;;;;;25.11;46.68;100143.70;110886;1249;22496;-57
2023/08/25 07:25:43;;;;;;;3.60;2.40;;;;;;;25.20;45.96;100137.91;111670;1249;22619;-48
2023/08/25 07:28:10;;;;;;;;;;;;;;;25.31;45.55;100139.25;111816;1248;22441;-48
2023/08/25 07:30:38;;;;;;;4.00;2.60;;;;;;;25.42;45.64;100137.42;112980;1249;22392;-55
2023/08/25 07:33:07;;;;;;;6.90;3.00;;;;;;;25.56;45.08;100137.42;112350;1249;22534;-49
2023/08/25 07:35:35;;;;;;;4.50;2.00;;;;;;;25.66;44.17;100140.01;112071;1249;22518;-48
2023/08/25 07:38:02;;;;;;;5.50;2.60;;;;;;;25.72;43.60;100138.17;111402;1249;22507;-57
2023/08/25 07:40:31;;;;;;;3.90;2.30;;;;;;;25.78;42.86;100144.60;110593;1248;23019;-54
2023/08/25 07:43:01;;;;;;;9.10;2.30;;;;;;;25.81;42.41;100141.55;111905;1249;23040;-47
2023/08/25 07:45:29;;;;;;;7.10;2.60;;;;;;;25.88;41.92;100139.98;112424;1249;22762;-57
2023/08/25 07:47:59;;;;;;;12.30;3.00;;;;;;;25.94;41.51;100139.40;110610;1248;22730;-48
2023/08/25 07:50:30;;;;;;;11.10;2.60;;;;;;;26.01;41.64;100140.23;111073;1249;22520;-55
2023/08/25 07:52:57;;;;;;;8.70;2.60;;;;;;;26.06;41.40;100138.26;110450;1249;25379;-48
2023/08/25 07:55:25;;;;;;;11.10;2.80;;;;;;;26.11;40.98;100144.71;111409;1249;22421;-53
2023/08/25 07:57:52;;;;;;;3.70;2.20;;;;;;;26.16;40.39;100142.22;111644;1248;22656;-49
2023/08/25 08:00:20;;;;;;;9.50;2.80;;;;;;;26.20;40.35;100141.79;111526;1249;22402;-49
2023/08/25 08:02:48;;;;;;;4.20;2.80;;;;;;;26.25;40.46;100142.17;113067;1249;22258;-48
2023/08/25 08:05:17;;;;;;;4.50;2.30;;;;;;;26.28;39.90;100145.95;112916;1249;22393;-55
2023/08/25 08:07:45;;;;;;;4.10;2.20;;;;;;;26.27;39.97;100150.47;112815;1241;22529;-56
2023/08/25 08:10:12;;;;;;;4.70;2.70;;;;;;;26.30;39.76;100153.10;111452;1249;22599;-48
2023/08/25 08:12:42;;;;;;;10.50;2.30;;;;;;;26.32;40.10;100154.09;110569;1244;26469;-56
2023/08/25 08:15:10;;;;;;;4.00;2.30;;;;;;;26.35;39.75;100155.60;111362;1249;23156;-56
2023/08/25 08:17:37;;;;;;;6.50;2.60;;;;;;;26.40;39.40;100150.83;113018;1249;22978;-46
2023/08/25 08:20:11;;;;;;;4.50;2.50;;;;;;;26.47;39.58;100139.25;112831;1249;22414;-47
2023/08/25 08:22:40;;;;;;;5.50;2.40;;;;;;;26.57;39.48;100139.11;112707;1248;22535;-56
2023/08/25 08:25:10;;;;;;;4.50;2.40;;;;;;;26.67;39.22;100136.67;111367;1235;24158;-48
2023/08/25 08:27:39;;;;;;;8.00;2.30;;;;;;;26.79;39.52;100139.75;112628;1249;22396;-55
2023/08/25 08:30:10;;;;;;;3.10;2.10;;;;;;;26.90;39.17;100141.85;112639;1246;22520;-47
2023/08/25 08:32:38;;;;;;;4.30;2.70;;;;;;;26.98;38.45;100147.20;110855;1249;24159;-48
2023/08/25 08:35:08;;;;;;;4.40;2.60;;;;;;;27.02;38.30;100150.48;112106;1249;22455;-57
2023/08/25 08:37:39;;;;;;;4.60;1.90;;;;;;;27.07;37.90;100139.27;112962;1249;22354;-58
2023/08/25 08:40:08;;;;;;;3.20;2.10;;;;;;;27.19;37.03;100136.80;112970;1248;22480;-49
2023/08/25 08:42:36;;;;;;;8.10;2.40;;;;;;;27.31;36.69;100132.34;112999;1249;22387;-47
2023/08/25 08:45:05;;;;;;;3.50;2.30;;;;;;;27.36;36.35;100130.74;112980;1249;23070;-55
2023/08/25 08:47:33;;;;;;;3.20;1.90;;;;;;;27.39;36.53;100129.98;112469;1248;25260;-56
2023/08/25 08:50:00;;;;;;;3.20;1.90;;;;;;;27.47;36.04;100129.54;111199;1249;25311;-48
2023/08/25 08:52:28;;;;;;;6.10;2.80;;;;;;;27.50;35.83;100129.48;112997;1248;22366;-48
2023/08/25 08:54:57;;;;;;;6.20;2.20;;;;;;;27.52;35.88;100131.70;113004;1249;22391;-55
2023/08/25 08:57:25;;;;;;;4.70;2.40;;;;;;;27.53;34.95;100136.78;113042;1249;22359;-56
2023/08/25 08:59:52;;;;;;;2.90;2.10;;;;;;;27.46;34.99;100137.48;112242;1248;22316;-54
2023/08/25 09:02:22;;;;;;;4.90;2.20;;;;;;;27.43;35.57;100134.02;112108;1249;22592;-56
2023/08/25 09:04:50;;;;;;;7.20;2.20;;;;;;;27.45;35.68;100129.52;110399;1248;23373;-48
2023/08/25 09:07:20;;;;;;;5.80;2.70;;;;;;;27.54;35.71;100120.08;110452;1240;24179;-47
2023/08/25 09:09:48;;;;;;;4.20;2.50;;;;;;;27.68;35.72;100117.46;110592;1248;24168;-47
2023/08/25 09:12:18;;;;;;;4.00;2.00;;;;;;;27.76;35.46;100116.89;113018;1248;22457;-48
2023/08/25 09:14:45;;;;;;;3.40;2.50;;;;;;;27.74;35.31;100120.27;113031;1249;22388;-55
2023/08/25 09:17:13;;;;;;;8.60;1.90;;;;;;;27.77;34.92;100121.66;112991;1248;23150;-49
2023/08/25 09:19:40;;;;;;;3.10;2.00;;;;;;;27.83;34.76;100118.15;113015;1249;22474;-56
2023/08/25 09:22:15;;;;;;;7.10;2.20;;;;;;;27.85;34.63;100114.08;112063;1249;22258;-48
2023/08/25 09:24:43;;;;;;;7.80;2.20;;;;;;;27.82;34.80;100111.35;112591;1248;23371;-48
2023/08/25 09:27:26;;;;;;;4.50;2.30;;;;;;;27.87;34.58;100110.64;112993;1249;23686;-55
2023/08/25 09:30:03;;;;;;;3.90;2.20;;;;;;;27.92;34.86;100111.73;112484;1249;22497;-57
2023/08/25 09:32:30;;;;;;;3.60;2.30;;;;;;;27.94;34.54;100109.98;111151;1249;23647;-48
2023/08/25 09:35:15;;;;;;;5.20;2.40;;;;;;;27.87;34.85;100107.86;111064;1248;22531;-55
2023/08/25 09:37:42;;;;;;;10.00;2.40;;;;;;;27.79;35.04;100105.58;111598;1249;23275;-55
2023/08/25 09:40:13;;;;;;;6.00;2.50;;;;;;;27.78;35.14;100101.17;112026;1248;25307;-55
2023/08/25 09:42:41;;;;;;;4.00;2.20;;;;;;;27.72;34.81;100102.67;111958;1249;23220;-48
2023/08/25 09:45:09;;;;;;;8.10;2.80;;;;;;;27.62;34.92;100105.21;112982;1249;22383;-55
2023/08/25 09:47:36;;;;;;;9.50;2.10;;;;;;;27.52;35.12;100107.17;113045;1249;22207;-48
2023/08/25 09:50:04;;;;;;;4.70;2.30;;;;;;;27.43;35.38;100109.98;112331;1249;23082;-56
2023/08/25 09:52:34;;;;;;;4.80;2.40;;;;;;;27.39;35.46;100109.17;111661;1248;25492;-47
2023/08/25 09:55:01;;;;;;;3.90;2.10;;;;;;;27.46;35.38;100104.58;112810;1249;23212;-50
2023/08/25 09:57:29;;;;;;;5.50;2.50;;;;;;;27.60;35.41;100103.72;112924;1249;22373;-49
2023/08/25 09:59:56;;;;;;;5.30;1.90;;;;;;;27.77;35.37;100098.92;112745;1249;22302;-55
2023/08/25 10:02:23;;;;;;;4.10;1.90;;;;;;;27.97;34.68;100099.72;112825;1249;22418;-55
2023/08/25 10:04:49;;;;;;;7.30;2.10;;;;;;;28.07;34.42;100100.58;112628;1249;22505;-48
2023/08/25 10:07:17;;;;;;;8.20;2.30;;;;;;;28.08;33.85;100094.96;112206;1249;22537;-48
2023/08/25 10:09:45;;;;;;;4.60;2.40;;;;;;;28.09;33.92;100093.80;112837;1248;22416;-56
2023/08/25 10:12:12;;;;;;;4.10;1.90;;;;;;;28.11;33.31;100095.83;112707;1249;22431;-56
2023/08/25 10:14:39;;;;;;;10.30;2.80;;;;;;;27.95;33.35;100098.76;113010;1249;23235;-47
2023/08/25 10:17:06;;;;;;;5.00;2.00;;;;;;;27.83;33.35;100088.59;112474;1249;24287;-55
2023/08/25 10:19:34;;;;;;;6.10;2.50;;;;;;;27.92;33.55;100083.98;112480;1249;22903;-55
2023/08/25 10:22:01;;;;;;;6.80;2.10;;;;;;;28.16;33.35;100076.02;112718;1249;22544;-56
2023/08/25 10:24:29;;;;;;;5.10;1.80;;;;;;;28.43;32.64;100073.80;112855;1249;23148;-47
2023/08/25 10:26:56;;;;;;;4.90;2.30;;;;;;;28.65;32.28;100070.49;112163;1249;23233;-48
2023/08/25 10:29:23;;;;;;;5.20;1.80;;;;;;;28.83;31.74;100073.52;111828;1249;22486;-55
2023/08/25 10:31:51;;;;;;;9.80;2.20;;;;;;;28.99;31.60;100071.77;112667;1249;22406;-47
2023/08/25 10:34:43;;;;;;;8.30;1.80;;;;;;;29.20;31.40;100065.55;110677;1249;23967;-56
2023/08/25 10:37:11;;;;;;;7.00;2.30;;;;;;;29.19;31.68;100068.17;110479;1249;22513;-47
2023/08/25 10:39:45;;;;;;;17.20;7.70;;;;;;;28.98;31.89;100066.05;112584;1249;23174;-48
2023/08/25 10:42:12;;;;;;;7.90;4.50;;;;;;;29.10;31.79;100065.96;111262;1249;23087;-56
2023/08/25 10:44:42;;;;;;;8.40;3.70;;;;;;;29.47;31.74;100063.50;112688;1249;22458;-55
2023/08/25 10:47:09;;;;;;;7.60;2.20;;;;;;;29.88;31.06;100061.95;113019;1249;22416;-57
2023/08/25 10:49:39;;;;;;;5.30;2.40;;;;;;;30.23;30.23;100058.60;110966;1249;22513;-49
2023/08/25 10:52:16;;;;;;;5.40;2.60;;;;;;;30.56;29.89;100060.05;110505;1249;25473;-56
2023/08/25 10:54:46;;;;;;;7.50;2.80;;;;;;;31.05;29.48;100048.73;111271;1249;22977;-47
2023/08/25 10:57:26;;;;;;;7.90;2.40;;;;;;;31.65;28.65;100048.18;110889;1249;23149;-48
2023/08/25 10:59:56;;;;;;;6.50;2.20;;;;;;;32.16;27.89;100050.31;111345;1249;26598;-48
2023/08/25 11:02:36;;;;;;;7.20;2.40;;;;;;;32.38;27.39;100048.25;110238;1249;25330;-50
2023/08/25 11:05:31;;;;;;;5.40;2.40;;;;;;;32.59;27.04;100053.23;111434;1249;22423;-57
2023/08/25 11:08:05;;;;;;;4.00;2.10;;;;;;;32.69;26.91;100049.41;113027;1248;22372;-56
2023/08/25 11:10:38;;;;;;;7.60;2.40;;;;;;;32.68;26.67;100049.02;113033;1249;22386;-48
2023/08/25 11:13:07;;;;;;;3.90;1.90;;;;;;;32.73;26.15;100054.41;111220;1249;22792;-55
2023/08/25 11:15:38;;;;;;;6.30;2.10;;;;;;;32.58;25.82;100047.38;110303;1249;24215;-57
2023/08/25 11:18:05;;;;;;;4.30;1.90;;;;;;;32.21;25.96;100048.52;111167;1249;23333;-56
2023/08/25 11:20:43;;;;;;;4.20;2.20;;;;;;;31.77;26.31;100052.30;113051;1249;23230;-56
